sensor_id;sensor_type;location;lat;lon;timestamp;pressure;altitude;pressure_sealevel;temperature;humidity
77543;BME280;66669;52.100;5.104;2023-03-01T00:01:13;103211.19;;;19.42;35.43
77543;BME280;66669;52.100;5.104;2023-03-01T00:03:38;103204.31;;;19.39;35.37
77543;BME280;66669;52.100;5.104;2023-03-01T00:06:05;103205.53;;;19.33;35.42
77543;BME280;66669;52.100;5.104;2023-03-01T00:08:31;103205.47;;;19.38;35.33
77543;BME280;66669;52.100;5.104;2023-03-01T00:11:07;103206.88;;;19.36;35.41
77543;BME280;66669;52.100;5.104;2023-03-01T00:13:34;103206.06;;;19.35;35.44
77543;BME280;66669;52.100;5.104;2023-03-01T00:16:05;103198.03;;;19.34;35.41
77543;BME280;66669;52.100;5.104;2023-03-01T00:18:31;103199.47;;;19.31;35.56
77543;BME280;66669;52.100;5.104;2023-03-01T00:20:56;103200.63;;;19.30;35.32
77543;BME280;66669;52.100;5.104;2023-03-01T00:23:22;103197.00;;;19.30;35.40
77543;BME280;66669;52.100;5.104;2023-03-01T00:25:49;103201.13;;;19.32;35.26
77543;BME280;66669;52.100;5.104;2023-03-01T00:28:15;103201.44;;;19.31;35.54
77543;BME280;66669;52.100;5.104;2023-03-01T00:30:40;103198.88;;;19.34;35.56
77543;BME280;66669;52.100;5.104;2023-03-01T00:33:06;103193.59;;;19.33;35.07
77543;BME280;66669;52.100;5.104;2023-03-01T00:35:32;103193.00;;;19.36;35.34
77543;BME280;66669;52.100;5.104;2023-03-01T00:37:59;103186.19;;;19.28;35.73
77543;BME280;66669;52.100;5.104;2023-03-01T00:40:25;103188.16;;;19.28;35.58
77543;BME280;66669;52.100;5.104;2023-03-01T00:42:50;103185.78;;;19.35;35.41
77543;BME280;66669;52.100;5.104;2023-03-01T00:45:16;103185.25;;;19.33;35.54
77543;BME280;66669;52.100;5.104;2023-03-01T00:47:42;103184.66;;;19.36;35.88
77543;BME280;66669;52.100;5.104;2023-03-01T00:50:08;103194.34;;;19.38;35.70
77543;BME280;66669;52.100;5.104;2023-03-01T00:52:34;103192.06;;;19.40;36.01
77543;BME280;66669;52.100;5.104;2023-03-01T00:54:59;103187.03;;;19.42;36.03
77543;BME280;66669;52.100;5.104;2023-03-01T00:57:25;103188.13;;;19.41;35.98
77543;BME280;66669;52.100;5.104;2023-03-01T00:59:51;103187.84;;;19.43;35.87
77543;BME280;66669;52.100;5.104;2023-03-01T01:02:20;103190.19;;;19.50;35.68
77543;BME280;66669;52.100;5.104;2023-03-01T01:04:46;103179.06;;;19.50;35.97
77543;BME280;66669;52.100;5.104;2023-03-01T01:07:11;103185.97;;;19.52;35.95
77543;BME280;66669;52.100;5.104;2023-03-01T01:09:37;103176.34;;;19.58;35.92
77543;BME280;66669;52.100;5.104;2023-03-01T01:12:03;103185.34;;;19.55;35.68
77543;BME280;66669;52.100;5.104;2023-03-01T01:14:28;103173.09;;;19.56;35.74
77543;BME280;66669;52.100;5.104;2023-03-01T01:16:54;103173.38;;;19.55;35.74
77543;BME280;66669;52.100;5.104;2023-03-01T01:19:20;103171.63;;;19.59;35.72
77543;BME280;66669;52.100;5.104;2023-03-01T01:21:45;103169.16;;;19.57;35.91
77543;BME280;66669;52.100;5.104;2023-03-01T01:24:11;103160.19;;;19.60;35.98
77543;BME280;66669;52.100;5.104;2023-03-01T01:26:37;103155.25;;;19.57;35.96
77543;BME280;66669;52.100;5.104;2023-03-01T01:29:03;103154.09;;;19.58;35.71
77543;BME280;66669;52.100;5.104;2023-03-01T01:31:30;103149.06;;;19.60;36.02
77543;BME280;66669;52.100;5.104;2023-03-01T01:34:00;103140.72;;;19.60;35.78
77543;BME280;66669;52.100;5.104;2023-03-01T01:36:26;103139.91;;;19.60;35.72
77543;BME280;66669;52.100;5.104;2023-03-01T01:38:51;103136.09;;;19.69;36.17
77543;BME280;66669;52.100;5.104;2023-03-01T01:41:18;103137.09;;;19.74;36.79
77543;BME280;66669;52.100;5.104;2023-03-01T01:43:47;103129.78;;;19.78;35.98
77543;BME280;66669;52.100;5.104;2023-03-01T01:46:28;103127.66;;;19.61;34.27
77543;BME280;66669;52.100;5.104;2023-03-01T01:49:00;103135.97;;;19.11;33.91
77543;BME280;66669;52.100;5.104;2023-03-01T01:51:37;103139.31;;;18.66;33.92
77543;BME280;66669;52.100;5.104;2023-03-01T01:54:12;103134.84;;;18.38;34.39
77543;BME280;66669;52.100;5.104;2023-03-01T01:56:42;103132.22;;;18.14;34.55
77543;BME280;66669;52.100;5.104;2023-03-01T01:59:09;103130.22;;;17.82;34.25
77543;BME280;66669;52.100;5.104;2023-03-01T02:01:36;103137.09;;;17.65;35.22
77543;BME280;66669;52.100;5.104;2023-03-01T02:04:02;103126.16;;;17.36;35.44
77543;BME280;66669;52.100;5.104;2023-03-01T02:06:31;103123.91;;;17.19;35.48
77543;BME280;66669;52.100;5.104;2023-03-01T02:09:01;103123.66;;;17.16;35.77
77543;BME280;66669;52.100;5.104;2023-03-01T02:11:29;103122.94;;;17.05;36.06
77543;BME280;66669;52.100;5.104;2023-03-01T02:13:55;103122.53;;;16.93;36.41
77543;BME280;66669;52.100;5.104;2023-03-01T02:16:21;103114.13;;;16.79;36.18
77543;BME280;66669;52.100;5.104;2023-03-01T02:18:47;103115.75;;;16.80;36.29
77543;BME280;66669;52.100;5.104;2023-03-01T02:21:19;103119.16;;;16.72;36.60
77543;BME280;66669;52.100;5.104;2023-03-01T02:23:48;103121.16;;;16.66;36.55
77543;BME280;66669;52.100;5.104;2023-03-01T02:26:21;103118.13;;;16.63;36.13
77543;BME280;66669;52.100;5.104;2023-03-01T02:28:50;103119.34;;;16.57;36.75
77543;BME280;66669;52.100;5.104;2023-03-01T02:31:19;103121.28;;;16.56;36.28
77543;BME280;66669;52.100;5.104;2023-03-01T02:34:05;103117.13;;;16.54;35.74
77543;BME280;66669;52.100;5.104;2023-03-01T02:36:36;103120.28;;;16.42;36.58
77543;BME280;66669;52.100;5.104;2023-03-01T02:39:04;103118.34;;;16.42;35.97
77543;BME280;66669;52.100;5.104;2023-03-01T02:41:35;103112.03;;;16.37;36.35
77543;BME280;66669;52.100;5.104;2023-03-01T02:44:03;103110.69;;;16.34;36.34
77543;BME280;66669;52.100;5.104;2023-03-01T02:46:28;103106.25;;;16.33;36.78
77543;BME280;66669;52.100;5.104;2023-03-01T02:48:56;103097.78;;;16.25;36.45
77543;BME280;66669;52.100;5.104;2023-03-01T02:54:20;103090.25;;;16.30;36.20
77543;BME280;66669;52.100;5.104;2023-03-01T02:56:48;103081.47;;;16.23;36.74
77543;BME280;66669;52.100;5.104;2023-03-01T02:59:16;103087.59;;;16.20;36.48
77543;BME280;66669;52.100;5.104;2023-03-01T03:01:43;103089.59;;;16.09;36.75
77543;BME280;66669;52.100;5.104;2023-03-01T03:04:10;103093.53;;;16.03;36.68
77543;BME280;66669;52.100;5.104;2023-03-01T03:06:36;103083.56;;;16.07;36.47
77543;BME280;66669;52.100;5.104;2023-03-01T03:09:03;103084.13;;;16.04;35.72
77543;BME280;66669;52.100;5.104;2023-03-01T03:11:28;103077.25;;;16.02;36.41
77543;BME280;66669;52.100;5.104;2023-03-01T03:13:55;103080.63;;;15.93;36.73
77543;BME280;66669;52.100;5.104;2023-03-01T03:16:21;103086.16;;;15.93;36.37
77543;BME280;66669;52.100;5.104;2023-03-01T03:18:47;103079.25;;;15.91;36.80
77543;BME280;66669;52.100;5.104;2023-03-01T03:21:13;103078.81;;;15.79;36.96
77543;BME280;66669;52.100;5.104;2023-03-01T03:23:38;103071.84;;;15.86;36.45
77543;BME280;66669;52.100;5.104;2023-03-01T03:26:04;103078.75;;;15.84;36.04
77543;BME280;66669;52.100;5.104;2023-03-01T03:28:31;103075.78;;;15.80;36.08
77543;BME280;66669;52.100;5.104;2023-03-01T03:30:57;103072.00;;;15.61;36.40
77543;BME280;66669;52.100;5.104;2023-03-01T03:33:23;103063.66;;;15.71;37.39
77543;BME280;66669;52.100;5.104;2023-03-01T03:35:50;103058.38;;;15.75;36.44
77543;BME280;66669;52.100;5.104;2023-03-01T03:38:18;103063.72;;;15.61;36.72
77543;BME280;66669;52.100;5.104;2023-03-01T03:40:49;103059.31;;;15.60;36.83
77543;BME280;66669;52.100;5.104;2023-03-01T03:43:19;103056.78;;;15.68;37.07
77543;BME280;66669;52.100;5.104;2023-03-01T03:45:46;103061.78;;;15.61;37.09
77543;BME280;66669;52.100;5.104;2023-03-01T03:48:12;103051.81;;;15.65;36.77
77543;BME280;66669;52.100;5.104;2023-03-01T03:50:38;103056.28;;;15.56;36.31
77543;BME280;66669;52.100;5.104;2023-03-01T03:53:09;103058.72;;;15.63;36.70
77543;BME280;66669;52.100;5.104;2023-03-01T03:55:35;103053.47;;;15.61;36.67
77543;BME280;66669;52.100;5.104;2023-03-01T03:58:05;103045.47;;;15.65;36.34
77543;BME280;66669;52.100;5.104;2023-03-01T04:00:41;103050.47;;;15.58;36.41
77543;BME280;66669;52.100;5.104;2023-03-01T04:03:09;103049.13;;;15.50;36.66
77543;BME280;66669;52.100;5.104;2023-03-01T04:05:36;103047.75;;;15.53;36.29
77543;BME280;66669;52.100;5.104;2023-03-01T04:08:01;103043.13;;;15.43;36.70
77543;BME280;66669;52.100;5.104;2023-03-01T04:10:40;103052.50;;;15.42;36.86
77543;BME280;66669;52.100;5.104;2023-03-01T04:13:09;103051.97;;;15.40;36.75
77543;BME280;66669;52.100;5.104;2023-03-01T04:15:36;103058.31;;;15.40;37.15
77543;BME280;66669;52.100;5.104;2023-03-01T04:18:01;103051.09;;;15.44;36.67
77543;BME280;66669;52.100;5.104;2023-03-01T04:20:29;103050.28;;;15.44;36.91
77543;BME280;66669;52.100;5.104;2023-03-01T04:22:59;103045.59;;;15.44;36.52
77543;BME280;66669;52.100;5.104;2023-03-01T04:25:25;103050.84;;;15.41;36.77
77543;BME280;66669;52.100;5.104;2023-03-01T04:27:51;103052.84;;;15.35;36.59
77543;BME280;66669;52.100;5.104;2023-03-01T04:30:16;103048.44;;;15.34;36.41
77543;BME280;66669;52.100;5.104;2023-03-01T04:32:41;103046.53;;;15.30;36.53
77543;BME280;66669;52.100;5.104;2023-03-01T04:35:08;103047.66;;;15.23;36.55
77543;BME280;66669;52.100;5.104;2023-03-01T04:37:34;103053.97;;;15.29;36.76
77543;BME280;66669;52.100;5.104;2023-03-01T04:40:00;103060.03;;;15.31;37.18
77543;BME280;66669;52.100;5.104;2023-03-01T04:42:26;103057.06;;;15.22;36.12
77543;BME280;66669;52.100;5.104;2023-03-01T04:44:51;103056.19;;;15.27;37.41
77543;BME280;66669;52.100;5.104;2023-03-01T04:47:17;103043.84;;;15.14;37.26
77543;BME280;66669;52.100;5.104;2023-03-01T04:49:42;103050.22;;;15.10;37.37
77543;BME280;66669;52.100;5.104;2023-03-01T04:52:08;103039.94;;;15.20;37.10
77543;BME280;66669;52.100;5.104;2023-03-01T04:54:35;103036.38;;;15.15;37.11
77543;BME280;66669;52.100;5.104;2023-03-01T04:57:01;103037.22;;;15.10;36.80
77543;BME280;66669;52.100;5.104;2023-03-01T04:59:27;103032.84;;;15.09;37.19
77543;BME280;66669;52.100;5.104;2023-03-01T05:01:54;103030.84;;;15.15;37.19
77543;BME280;66669;52.100;5.104;2023-03-01T05:04:22;103029.47;;;15.12;36.46
77543;BME280;66669;52.100;5.104;2023-03-01T05:06:47;103025.63;;;15.13;37.14
77543;BME280;66669;52.100;5.104;2023-03-01T05:09:13;103022.88;;;15.08;37.08
77543;BME280;66669;52.100;5.104;2023-03-01T05:11:38;103019.06;;;14.99;36.49
77543;BME280;66669;52.100;5.104;2023-03-01T05:14:08;103021.28;;;14.97;36.87
77543;BME280;66669;52.100;5.104;2023-03-01T05:16:35;103010.28;;;14.92;36.31
77543;BME280;66669;52.100;5.104;2023-03-01T05:19:02;103010.78;;;14.99;37.08
77543;BME280;66669;52.100;5.104;2023-03-01T05:21:38;103012.44;;;15.00;37.39
77543;BME280;66669;52.100;5.104;2023-03-01T05:24:24;103011.06;;;14.97;37.15
77543;BME280;66669;52.100;5.104;2023-03-01T05:26:50;103006.41;;;14.93;36.94
77543;BME280;66669;52.100;5.104;2023-03-01T05:29:18;102998.97;;;14.88;37.00
77543;BME280;66669;52.100;5.104;2023-03-01T05:31:44;102990.97;;;14.87;37.41
77543;BME280;66669;52.100;5.104;2023-03-01T05:34:09;102983.81;;;14.86;37.22
77543;BME280;66669;52.100;5.104;2023-03-01T05:36:37;102981.59;;;14.83;37.65
77543;BME280;66669;52.100;5.104;2023-03-01T05:39:03;102979.69;;;14.78;37.89
77543;BME280;66669;52.100;5.104;2023-03-01T05:41:28;102976.63;;;14.85;37.85
77543;BME280;66669;52.100;5.104;2023-03-01T05:43:54;102971.69;;;14.82;37.18
77543;BME280;66669;52.100;5.104;2023-03-01T05:46:19;102964.78;;;14.84;36.42
77543;BME280;66669;52.100;5.104;2023-03-01T05:48:45;102964.75;;;14.89;37.52
77543;BME280;66669;52.100;5.104;2023-03-01T05:51:10;102971.91;;;14.90;37.48
77543;BME280;66669;52.100;5.104;2023-03-01T05:53:37;102965.03;;;14.88;37.36
77543;BME280;66669;52.100;5.104;2023-03-01T05:56:04;102966.03;;;15.02;36.80
77543;BME280;66669;52.100;5.104;2023-03-01T05:58:29;102968.28;;;14.95;37.11
77543;BME280;66669;52.100;5.104;2023-03-01T06:00:55;102967.78;;;14.88;37.49
77543;BME280;66669;52.100;5.104;2023-03-01T06:03:20;102963.06;;;14.93;36.48
77543;BME280;66669;52.100;5.104;2023-03-01T06:05:45;102973.03;;;14.89;37.28
77543;BME280;66669;52.100;5.104;2023-03-01T06:08:11;102967.19;;;14.96;36.73
77543;BME280;66669;52.100;5.104;2023-03-01T06:10:37;102966.34;;;15.01;36.38
77543;BME280;66669;52.100;5.104;2023-03-01T06:13:03;102970.97;;;15.10;36.76
77543;BME280;66669;52.100;5.104;2023-03-01T06:15:28;102969.59;;;15.08;36.29
77543;BME280;66669;52.100;5.104;2023-03-01T06:17:55;102966.03;;;15.02;36.32
77543;BME280;66669;52.100;5.104;2023-03-01T06:20:24;102968.59;;;14.93;36.79
77543;BME280;66669;52.100;5.104;2023-03-01T06:22:50;102965.81;;;14.93;35.68
77543;BME280;66669;52.100;5.104;2023-03-01T06:25:19;102969.44;;;14.89;35.29
77543;BME280;66669;52.100;5.104;2023-03-01T06:27:44;102968.06;;;14.86;36.34
77543;BME280;66669;52.100;5.104;2023-03-01T06:30:12;102973.91;;;14.80;36.58
77543;BME280;66669;52.100;5.104;2023-03-01T06:32:39;102971.69;;;14.82;36.74
77543;BME280;66669;52.100;5.104;2023-03-01T06:35:07;102977.75;;;14.84;36.65
77543;BME280;66669;52.100;5.104;2023-03-01T06:37:33;102979.97;;;14.82;36.39
77543;BME280;66669;52.100;5.104;2023-03-01T06:40:00;102977.22;;;14.77;36.92
77543;BME280;66669;52.100;5.104;2023-03-01T06:42:29;102977.81;;;14.68;36.97
77543;BME280;66669;52.100;5.104;2023-03-01T06:44:55;102979.47;;;14.69;37.14
77543;BME280;66669;52.100;5.104;2023-03-01T06:47:20;102977.25;;;14.71;37.53
77543;BME280;66669;52.100;5.104;2023-03-01T06:49:45;102971.38;;;14.88;36.70
77543;BME280;66669;52.100;5.104;2023-03-01T06:52:11;102975.22;;;14.92;37.19
77543;BME280;66669;52.100;5.104;2023-03-01T06:54:36;102977.75;;;14.84;37.44
77543;BME280;66669;52.100;5.104;2023-03-01T06:57:02;102978.34;;;14.76;36.58
77543;BME280;66669;52.100;5.104;2023-03-01T06:59:27;102981.69;;;14.67;36.83
77543;BME280;66669;52.100;5.104;2023-03-01T07:01:53;102983.63;;;14.62;37.21
77543;BME280;66669;52.100;5.104;2023-03-01T07:04:18;102973.72;;;14.61;37.05
77543;BME280;66669;52.100;5.104;2023-03-01T07:06:43;102979.22;;;14.61;37.14
77543;BME280;66669;52.100;5.104;2023-03-01T07:09:09;102973.97;;;14.64;36.65
77543;BME280;66669;52.100;5.104;2023-03-01T07:11:34;102981.16;;;14.60;36.88
77543;BME280;66669;52.100;5.104;2023-03-01T07:14:00;102978.97;;;14.57;37.31
77543;BME280;66669;52.100;5.104;2023-03-01T07:16:25;102968.16;;;14.66;36.67
77543;BME280;66669;52.100;5.104;2023-03-01T07:18:51;102972.03;;;14.65;36.47
77543;BME280;66669;52.100;5.104;2023-03-01T07:21:16;102971.78;;;14.66;36.98
77543;BME280;66669;52.100;5.104;2023-03-01T07:23:41;102987.22;;;14.67;37.04
77543;BME280;66669;52.100;5.104;2023-03-01T07:26:07;102986.13;;;14.63;36.67
77543;BME280;66669;52.100;5.104;2023-03-01T07:28:32;102985.81;;;14.70;36.79
77543;BME280;66669;52.100;5.104;2023-03-01T07:31:04;102992.69;;;14.78;36.77
77543;BME280;66669;52.100;5.104;2023-03-01T07:33:29;102988.56;;;14.75;37.48
77543;BME280;66669;52.100;5.104;2023-03-01T07:35:56;102990.44;;;14.85;36.88
77543;BME280;66669;52.100;5.104;2023-03-01T07:38:22;102996.09;;;15.09;36.34
77543;BME280;66669;52.100;5.104;2023-03-01T07:40:48;102989.22;;;15.06;36.63
77543;BME280;66669;52.100;5.104;2023-03-01T07:43:13;102992.44;;;15.18;36.44
77543;BME280;66669;52.100;5.104;2023-03-01T07:45:41;102986.38;;;15.16;36.65
77543;BME280;66669;52.100;5.104;2023-03-01T07:48:06;102989.94;;;15.22;36.13
77543;BME280;66669;52.100;5.104;2023-03-01T07:50:32;102993.19;;;15.34;36.98
77543;BME280;66669;52.100;5.104;2023-03-01T07:52:57;102989.66;;;15.23;36.57
77543;BME280;66669;52.100;5.104;2023-03-01T07:55:23;102995.47;;;15.22;36.37
77543;BME280;66669;52.100;5.104;2023-03-01T07:57:48;102984.41;;;15.22;36.34
77543;BME280;66669;52.100;5.104;2023-03-01T08:00:14;102990.16;;;15.31;36.62
77543;BME280;66669;52.100;5.104;2023-03-01T08:02:39;102988.94;;;15.42;36.15
77543;BME280;66669;52.100;5.104;2023-03-01T08:05:07;102998.00;;;15.53;36.58
77543;BME280;66669;52.100;5.104;2023-03-01T08:07:33;102994.31;;;15.62;36.70
77543;BME280;66669;52.100;5.104;2023-03-01T08:09:58;102993.53;;;15.57;36.56
77543;BME280;66669;52.100;5.104;2023-03-01T08:12:23;102992.16;;;15.54;36.91
77543;BME280;66669;52.100;5.104;2023-03-01T08:14:49;102998.19;;;15.61;36.34
77543;BME280;66669;52.100;5.104;2023-03-01T08:17:14;102993.22;;;15.68;36.46
77543;BME280;66669;52.100;5.104;2023-03-01T08:19:40;102993.22;;;15.68;35.95
77543;BME280;66669;52.100;5.104;2023-03-01T08:22:05;102995.44;;;15.61;36.46
77543;BME280;66669;52.100;5.104;2023-03-01T08:24:30;102987.69;;;15.63;36.25
77543;BME280;66669;52.100;5.104;2023-03-01T08:26:56;102989.84;;;15.71;36.48
77543;BME280;66669;52.100;5.104;2023-03-01T08:29:22;102986.69;;;15.49;35.97
77543;BME280;66669;52.100;5.104;2023-03-01T08:31:48;102982.34;;;15.38;35.65
77543;BME280;66669;52.100;5.104;2023-03-01T08:34:15;102976.25;;;15.41;36.07
77543;BME280;66669;52.100;5.104;2023-03-01T08:36:42;102982.53;;;15.52;36.68
77543;BME280;66669;52.100;5.104;2023-03-01T08:39:10;102989.41;;;15.54;36.16
77543;BME280;66669;52.100;5.104;2023-03-01T08:41:36;102982.34;;;15.43;35.55
77543;BME280;66669;52.100;5.104;2023-03-01T08:44:02;102985.66;;;14.95;34.29
77543;BME280;66669;52.100;5.104;2023-03-01T08:46:30;102983.88;;;14.76;35.77
77543;BME280;66669;52.100;5.104;2023-03-01T08:48:56;102981.22;;;15.44;38.19
77543;BME280;66669;52.100;5.104;2023-03-01T08:51:22;102981.59;;;15.95;38.11
77543;BME280;66669;52.100;5.104;2023-03-01T08:53:48;102977.34;;;16.32;38.29
77543;BME280;66669;52.100;5.104;2023-03-01T08:56:14;102979.06;;;16.52;37.92
77543;BME280;66669;52.100;5.104;2023-03-01T08:58:46;102979.38;;;16.69;37.81
77543;BME280;66669;52.100;5.104;2023-03-01T09:01:14;102971.84;;;16.75;37.52
77543;BME280;66669;52.100;5.104;2023-03-01T09:03:40;102980.63;;;16.82;37.93
77543;BME280;66669;52.100;5.104;2023-03-01T09:06:07;102968.81;;;16.95;37.92
77543;BME280;66669;52.100;5.104;2023-03-01T09:08:40;102967.81;;;17.05;37.82
77543;BME280;66669;52.100;5.104;2023-03-01T09:11:08;102953.88;;;17.10;37.56
77543;BME280;66669;52.100;5.104;2023-03-01T09:13:34;102948.09;;;17.26;38.48
77543;BME280;66669;52.100;5.104;2023-03-01T09:16:01;102950.41;;;17.37;38.45
77543;BME280;66669;52.100;5.104;2023-03-01T09:18:27;102943.66;;;17.43;37.68
77543;BME280;66669;52.100;5.104;2023-03-01T09:20:53;102945.44;;;17.53;37.62
77543;BME280;66669;52.100;5.104;2023-03-01T09:23:21;102940.84;;;17.62;37.39
77543;BME280;66669;52.100;5.104;2023-03-01T09:25:47;102942.38;;;17.68;37.18
77543;BME280;66669;52.100;5.104;2023-03-01T09:28:12;102936.16;;;17.77;36.97
77543;BME280;66669;52.100;5.104;2023-03-01T09:30:37;102932.19;;;17.83;36.62
77543;BME280;66669;52.100;5.104;2023-03-01T09:33:03;102925.72;;;17.87;36.61
77543;BME280;66669;52.100;5.104;2023-03-01T09:35:28;102930.56;;;17.95;36.76
77543;BME280;66669;52.100;5.104;2023-03-01T09:37:54;102924.81;;;18.06;36.75
77543;BME280;66669;52.100;5.104;2023-03-01T09:40:21;102917.50;;;18.10;36.97
77543;BME280;66669;52.100;5.104;2023-03-01T09:43:06;102924.41;;;18.12;36.31
77543;BME280;66669;52.100;5.104;2023-03-01T09:45:40;102915.97;;;18.17;36.69
77543;BME280;66669;52.100;5.104;2023-03-01T09:48:14;102919.34;;;18.28;36.64
77543;BME280;66669;52.100;5.104;2023-03-01T09:50:42;102920.59;;;18.22;34.37
77543;BME280;66669;52.100;5.104;2023-03-01T09:53:22;102922.22;;;18.23;35.26
77543;BME280;66669;52.100;5.104;2023-03-01T09:56:12;102926.63;;;18.24;34.92
77543;BME280;66669;52.100;5.104;2023-03-01T10:01:45;102917.81;;;18.22;33.52
77543;BME280;66669;52.100;5.104;2023-03-01T10:09:34;102921.81;;;18.16;34.81
77543;BME280;66669;52.100;5.104;2023-03-01T10:12:02;102919.66;;;18.27;35.09
77543;BME280;66669;52.100;5.104;2023-03-01T10:14:33;102919.25;;;18.33;35.34
77543;BME280;66669;52.100;5.104;2023-03-01T10:17:10;102913.09;;;18.23;34.32
77543;BME280;66669;52.100;5.104;2023-03-01T10:19:43;102917.91;;;18.03;33.25
77543;BME280;66669;52.100;5.104;2023-03-01T10:22:18;102904.16;;;18.12;35.19
77543;BME280;66669;52.100;5.104;2023-03-01T10:24:47;102905.47;;;18.28;34.68
77543;BME280;66669;52.100;5.104;2023-03-01T10:27:24;102903.72;;;18.18;32.67
77543;BME280;66669;52.100;5.104;2023-03-01T10:30:22;102901.34;;;18.39;35.88
77543;BME280;66669;52.100;5.104;2023-03-01T10:32:56;102893.91;;;18.49;35.14
77543;BME280;66669;52.100;5.104;2023-03-01T10:35:25;102899.25;;;18.59;34.69
77543;BME280;66669;52.100;5.104;2023-03-01T10:40:23;102883.28;;;18.78;35.25
77543;BME280;66669;52.100;5.104;2023-03-01T10:42:49;102891.19;;;18.85;34.91
77543;BME280;66669;52.100;5.104;2023-03-01T10:45:32;102900.00;;;18.87;34.65
77543;BME280;66669;52.100;5.104;2023-03-01T10:48:18;102895.19;;;18.92;34.89
77543;BME280;66669;52.100;5.104;2023-03-01T10:50:47;102891.00;;;18.67;32.84
77543;BME280;66669;52.100;5.104;2023-03-01T10:53:42;102887.31;;;18.72;34.02
77543;BME280;66669;52.100;5.104;2023-03-01T10:56:10;102884.91;;;18.79;35.45
77543;BME280;66669;52.100;5.104;2023-03-01T10:58:40;102866.06;;;18.90;34.65
77543;BME280;66669;52.100;5.104;2023-03-01T11:01:24;102864.97;;;18.77;33.51
77543;BME280;66669;52.100;5.104;2023-03-01T11:06:30;102848.44;;;18.94;34.28
77543;BME280;66669;52.100;5.104;2023-03-01T11:08:56;102848.91;;;18.88;33.87
77543;BME280;66669;52.100;5.104;2023-03-01T11:11:22;102836.44;;;18.85;31.68
77543;BME280;66669;52.100;5.104;2023-03-01T11:13:52;102837.13;;;18.91;33.34
77543;BME280;66669;52.100;5.104;2023-03-01T11:16:31;102839.41;;;19.11;35.05
77543;BME280;66669;52.100;5.104;2023-03-01T11:19:04;102830.88;;;19.08;31.92
77543;BME280;66669;52.100;5.104;2023-03-01T11:21:33;102829.56;;;19.05;31.42
77543;BME280;66669;52.100;5.104;2023-03-01T11:24:01;102821.63;;;19.21;33.66
77543;BME280;66669;52.100;5.104;2023-03-01T11:26:28;102821.66;;;19.30;33.67
77543;BME280;66669;52.100;5.104;2023-03-01T11:28:58;102826.94;;;19.31;33.08
77543;BME280;66669;52.100;5.104;2023-03-01T11:31:28;102817.69;;;18.91;30.90
77543;BME280;66669;52.100;5.104;2023-03-01T11:34:05;102818.69;;;19.17;34.23
77543;BME280;66669;52.100;5.104;2023-03-01T11:36:40;102814.03;;;19.35;34.58
77543;BME280;66669;52.100;5.104;2023-03-01T11:39:37;102809.28;;;19.36;32.64
77543;BME280;66669;52.100;5.104;2023-03-01T11:42:19;102810.94;;;19.37;32.03
77543;BME280;66669;52.100;5.104;2023-03-01T11:44:48;102816.34;;;19.42;33.98
77543;BME280;66669;52.100;5.104;2023-03-01T11:50:49;102805.53;;;19.72;33.93
77543;BME280;66669;52.100;5.104;2023-03-01T11:56:32;102795.69;;;19.65;32.74
77543;BME280;66669;52.100;5.104;2023-03-01T12:15:55;102785.16;;;19.54;29.21
77543;BME280;66669;52.100;5.104;2023-03-01T12:21:30;102778.50;;;19.63;32.02
77543;BME280;66669;52.100;5.104;2023-03-01T12:24:04;102779.66;;;19.71;33.16
77543;BME280;66669;52.100;5.104;2023-03-01T12:26:36;102777.19;;;19.61;33.21
77543;BME280;66669;52.100;5.104;2023-03-01T12:32:13;102778.19;;;19.65;33.30
77543;BME280;66669;52.100;5.104;2023-03-01T12:34:55;102772.00;;;19.68;33.47
77543;BME280;66669;52.100;5.104;2023-03-01T12:40:34;102756.16;;;19.94;32.54
77543;BME280;66669;52.100;5.104;2023-03-01T12:43:10;102762.53;;;19.86;32.87
77543;BME280;66669;52.100;5.104;2023-03-01T12:48:41;102753.88;;;19.97;33.96
77543;BME280;66669;52.100;5.104;2023-03-01T12:51:08;102743.41;;;19.85;31.67
77543;BME280;66669;52.100;5.104;2023-03-01T12:53:41;102749.28;;;19.92;33.72
77543;BME280;66669;52.100;5.104;2023-03-01T12:56:11;102748.25;;;19.71;31.68
77543;BME280;66669;52.100;5.104;2023-03-01T12:59:04;102755.00;;;19.78;31.59
77543;BME280;66669;52.100;5.104;2023-03-01T13:04:06;102738.66;;;19.85;32.45
77543;BME280;66669;52.100;5.104;2023-03-01T13:06:54;102743.50;;;19.62;28.63
77543;BME280;66669;52.100;5.104;2023-03-01T13:09:43;102735.66;;;19.64;30.83
77543;BME280;66669;52.100;5.104;2023-03-01T13:18:02;102719.50;;;20.01;32.99
77543;BME280;66669;52.100;5.104;2023-03-01T13:26:16;102707.06;;;20.07;32.52
77543;BME280;66669;52.100;5.104;2023-03-01T13:28:52;102701.50;;;20.07;32.01
77543;BME280;66669;52.100;5.104;2023-03-01T13:34:03;102692.81;;;20.09;30.95
77543;BME280;66669;52.100;5.104;2023-03-01T13:39:04;102694.28;;;20.24;34.00
77543;BME280;66669;52.100;5.104;2023-03-01T13:44:37;102683.97;;;20.33;33.29
77543;BME280;66669;52.100;5.104;2023-03-01T13:52:45;102663.53;;;19.94;29.15
77543;BME280;66669;52.100;5.104;2023-03-01T13:57:43;102667.59;;;19.88;28.44
77543;BME280;66669;52.100;5.104;2023-03-01T14:00:26;102656.00;;;19.77;29.87
77543;BME280;66669;52.100;5.104;2023-03-01T14:05:29;102658.59;;;19.82;29.06
77543;BME280;66669;52.100;5.104;2023-03-01T14:07:55;102649.59;;;19.68;29.31
77543;BME280;66669;52.100;5.104;2023-03-01T14:10:21;102644.69;;;19.65;30.68
77543;BME280;66669;52.100;5.104;2023-03-01T14:19:27;102633.22;;;19.92;32.97
77543;BME280;66669;52.100;5.104;2023-03-01T14:24:40;102625.84;;;19.97;30.98
77543;BME280;66669;52.100;5.104;2023-03-01T14:27:13;102625.56;;;19.81;30.67
77543;BME280;66669;52.100;5.104;2023-03-01T14:29:40;102623.25;;;19.83;32.55
77543;BME280;66669;52.100;5.104;2023-03-01T14:32:18;102611.63;;;19.63;26.64